Croswell, Michigan
Current Conditions -  °F | °C
As of 11:00 AM on Tuesday 21 Oct 2014 (Local Time) from CYZR Reporting Station
Overcast Overcast  
Wind Chill:   Ceiling: 2000
Heat Index:   Visibility: 9mi
Dew Point:   Wind: 26mph
Humidity: 81%   Direction: 350°N
Pressure: 29.98"   Gusts: 33mph
Location:  43.28°N, 82.62°W
Report Text: CYZR 211500Z AUTO 35023G29KT 9SM OVC020 08/05 A2998 RMK SLP153
Loading
Personal Weather Stations






























Interactive Weather Map
Tropical Storm Tracking
New forecast layout! Learn more

10-Day Weather Forecast

Advertisements
Track Severe Weather on mobile